Terminal Aerodrome Forecast
Issued by NWS

Home | Current Version | Previous Version | Text Only | Print | Product List | Glossary On
Versions: 1 2 3 4 5 6 7 8 9 10 11 12 13 14 15 16 17 18 19 20 21 22 23
000
FTUS41 KBGM 022246 AAB
TAFRME
TAF AMD
KRME 022246Z 0223/0318 28012KT P6SM -SHRA OVC035
      TEMPO 0223/0301 2SM -SHRASN OVC015
     FM030100 27009KT 6SM -SHRASN BR OVC025
     FM030600 29009KT 5SM -SHSN BR OVC015
     FM030900 29010KT P6SM -SHSN OVC025
     FM031500 29010G18KT P6SM OVC035=

USA.gov is the U.S. government's official web portal to all federal, state and local government web resources and services.